sensor_id;sensor_type;location;lat;lon;timestamp;P1;durP1;ratioP1;P2;durP2;ratioP2
31734;SDS011;18313;48.518;9.124;2023-05-10T00:00:42;0.98;;;0.50;;
31734;SDS011;18313;48.518;9.124;2023-05-10T00:03:09;0.82;;;0.50;;
31734;SDS011;18313;48.518;9.124;2023-05-10T00:05:36;0.85;;;0.35;;
31734;SDS011;18313;48.518;9.124;2023-05-10T00:08:03;0.80;;;0.40;;
31734;SDS011;18313;48.518;9.124;2023-05-10T00:10:31;0.77;;;0.40;;
31734;SDS011;18313;48.518;9.124;2023-05-10T00:12:58;0.47;;;0.30;;
31734;SDS011;18313;48.518;9.124;2023-05-10T00:15:25;0.40;;;0.40;;
31734;SDS011;18313;48.518;9.124;2023-05-10T00:17:52;0.70;;;0.35;;
31734;SDS011;18313;48.518;9.124;2023-05-10T00:20:20;0.35;;;0.20;;
31734;SDS011;18313;48.518;9.124;2023-05-10T00:22:47;0.30;;;0.30;;
31734;SDS011;18313;48.518;9.124;2023-05-10T00:25:14;2.92;;;0.30;;
31734;SDS011;18313;48.518;9.124;2023-05-10T00:27:41;0.20;;;0.20;;
31734;SDS011;18313;48.518;9.124;2023-05-10T00:30:08;0.90;;;0.32;;
31734;SDS011;18313;48.518;9.124;2023-05-10T00:32:35;0.38;;;0.30;;
31734;SDS011;18313;48.518;9.124;2023-05-10T00:35:02;1.35;;;0.32;;
31734;SDS011;18313;48.518;9.124;2023-05-10T00:37:29;0.80;;;0.40;;
31734;SDS011;18313;48.518;9.124;2023-05-10T00:39:56;1.95;;;0.30;;
31734;SDS011;18313;48.518;9.124;2023-05-10T00:42:23;0.17;;;0.17;;
31734;SDS011;18313;48.518;9.124;2023-05-10T00:44:50;0.55;;;0.30;;
31734;SDS011;18313;48.518;9.124;2023-05-10T00:47:18;0.40;;;0.30;;
31734;SDS011;18313;48.518;9.124;2023-05-10T00:49:45;0.30;;;0.30;;
31734;SDS011;18313;48.518;9.124;2023-05-10T00:52:12;1.75;;;0.30;;
31734;SDS011;18313;48.518;9.124;2023-05-10T00:54:40;3.15;;;0.50;;
31734;SDS011;18313;48.518;9.124;2023-05-10T00:57:07;0.85;;;0.30;;
31734;SDS011;18313;48.518;9.124;2023-05-10T00:59:34;0.30;;;0.30;;
31734;SDS011;18313;48.518;9.124;2023-05-10T01:02:01;0.45;;;0.30;;
31734;SDS011;18313;48.518;9.124;2023-05-10T01:04:28;0.90;;;0.20;;
31734;SDS011;18313;48.518;9.124;2023-05-10T01:06:56;0.85;;;0.40;;
31734;SDS011;18313;48.518;9.124;2023-05-10T01:09:24;0.63;;;0.30;;
31734;SDS011;18313;48.518;9.124;2023-05-10T01:11:52;1.27;;;0.32;;
31734;SDS011;18313;48.518;9.124;2023-05-10T01:14:20;0.60;;;0.25;;
31734;SDS011;18313;48.518;9.124;2023-05-10T01:16:48;0.68;;;0.30;;
31734;SDS011;18313;48.518;9.124;2023-05-10T01:19:22;0.20;;;0.20;;
31734;SDS011;18313;48.518;9.124;2023-05-10T01:22:02;0.88;;;0.20;;
31734;SDS011;18313;48.518;9.124;2023-05-10T01:25:02;0.80;;;0.22;;
31734;SDS011;18313;48.518;9.124;2023-05-10T01:33:01;0.25;;;0.25;;
31734;SDS011;18313;48.518;9.124;2023-05-10T01:35:47;0.30;;;0.20;;
31734;SDS011;18313;48.518;9.124;2023-05-10T01:46:28;0.20;;;0.20;;
31734;SDS011;18313;48.518;9.124;2023-05-10T01:49:08;0.20;;;0.20;;
31734;SDS011;18313;48.518;9.124;2023-05-10T01:51:48;0.20;;;0.20;;
31734;SDS011;18313;48.518;9.124;2023-05-10T01:54:19;0.10;;;0.10;;
31734;SDS011;18313;48.518;9.124;2023-05-10T01:56:52;0.40;;;0.20;;
31734;SDS011;18313;48.518;9.124;2023-05-10T01:59:27;1.38;;;0.20;;
31734;SDS011;18313;48.518;9.124;2023-05-10T02:01:57;2.13;;;0.20;;
31734;SDS011;18313;48.518;9.124;2023-05-10T02:04:26;0.30;;;0.20;;
31734;SDS011;18313;48.518;9.124;2023-05-10T02:06:55;0.50;;;0.20;;
31734;SDS011;18313;48.518;9.124;2023-05-10T02:09:23;1.30;;;0.22;;
31734;SDS011;18313;48.518;9.124;2023-05-10T02:11:54;0.30;;;0.30;;
31734;SDS011;18313;48.518;9.124;2023-05-10T02:14:23;1.35;;;0.20;;
31734;SDS011;18313;48.518;9.124;2023-05-10T02:16:52;1.40;;;0.40;;
31734;SDS011;18313;48.518;9.124;2023-05-10T02:19:22;0.20;;;0.20;;
31734;SDS011;18313;48.518;9.124;2023-05-10T02:21:50;0.25;;;0.25;;
31734;SDS011;18313;48.518;9.124;2023-05-10T02:24:18;0.85;;;0.30;;
31734;SDS011;18313;48.518;9.124;2023-05-10T02:26:46;0.77;;;0.47;;
31734;SDS011;18313;48.518;9.124;2023-05-10T02:29:16;0.30;;;0.30;;
31734;SDS011;18313;48.518;9.124;2023-05-10T02:31:45;0.30;;;0.30;;
31734;SDS011;18313;48.518;9.124;2023-05-10T02:34:12;0.80;;;0.30;;
31734;SDS011;18313;48.518;9.124;2023-05-10T02:36:40;0.75;;;0.40;;
31734;SDS011;18313;48.518;9.124;2023-05-10T02:39:08;0.40;;;0.30;;
31734;SDS011;18313;48.518;9.124;2023-05-10T02:41:40;1.38;;;0.40;;
31734;SDS011;18313;48.518;9.124;2023-05-10T02:44:08;0.82;;;0.30;;
31734;SDS011;18313;48.518;9.124;2023-05-10T02:46:37;4.55;;;0.30;;
31734;SDS011;18313;48.518;9.124;2023-05-10T02:49:04;0.30;;;0.30;;
31734;SDS011;18313;48.518;9.124;2023-05-10T02:51:32;0.47;;;0.38;;
31734;SDS011;18313;48.518;9.124;2023-05-10T02:54:05;0.45;;;0.38;;
31734;SDS011;18313;48.518;9.124;2023-05-10T02:56:37;0.65;;;0.50;;
31734;SDS011;18313;48.518;9.124;2023-05-10T02:59:08;2.20;;;0.40;;
31734;SDS011;18313;48.518;9.124;2023-05-10T03:01:36;0.63;;;0.57;;
31734;SDS011;18313;48.518;9.124;2023-05-10T03:04:03;0.50;;;0.40;;
31734;SDS011;18313;48.518;9.124;2023-05-10T03:06:30;1.85;;;0.40;;
31734;SDS011;18313;48.518;9.124;2023-05-10T03:08:58;0.50;;;0.40;;
31734;SDS011;18313;48.518;9.124;2023-05-10T03:11:28;1.35;;;0.50;;
31734;SDS011;18313;48.518;9.124;2023-05-10T03:17:49;1.05;;;0.60;;
31734;SDS011;18313;48.518;9.124;2023-05-10T03:20:25;1.63;;;0.50;;
31734;SDS011;18313;48.518;9.124;2023-05-10T03:23:00;1.52;;;0.50;;
31734;SDS011;18313;48.518;9.124;2023-05-10T03:25:43;0.65;;;0.55;;
31734;SDS011;18313;48.518;9.124;2023-05-10T03:28:12;2.90;;;0.60;;
31734;SDS011;18313;48.518;9.124;2023-05-10T03:30:42;0.80;;;0.60;;
31734;SDS011;18313;48.518;9.124;2023-05-10T03:33:10;1.30;;;0.60;;
31734;SDS011;18313;48.518;9.124;2023-05-10T03:35:39;0.77;;;0.63;;
31734;SDS011;18313;48.518;9.124;2023-05-10T03:38:06;1.15;;;0.57;;
31734;SDS011;18313;48.518;9.124;2023-05-10T03:40:33;0.90;;;0.63;;
31734;SDS011;18313;48.518;9.124;2023-05-10T03:43:00;2.53;;;0.63;;
31734;SDS011;18313;48.518;9.124;2023-05-10T03:45:27;0.68;;;0.60;;
31734;SDS011;18313;48.518;9.124;2023-05-10T03:47:54;0.82;;;0.60;;
31734;SDS011;18313;48.518;9.124;2023-05-10T03:50:21;1.60;;;0.60;;
31734;SDS011;18313;48.518;9.124;2023-05-10T03:52:49;2.40;;;0.70;;
31734;SDS011;18313;48.518;9.124;2023-05-10T03:55:19;0.75;;;0.60;;
31734;SDS011;18313;48.518;9.124;2023-05-10T03:57:46;2.05;;;0.50;;
31734;SDS011;18313;48.518;9.124;2023-05-10T04:00:16;2.55;;;0.65;;
31734;SDS011;18313;48.518;9.124;2023-05-10T04:02:44;0.95;;;0.70;;
31734;SDS011;18313;48.518;9.124;2023-05-10T04:05:11;1.33;;;0.70;;
31734;SDS011;18313;48.518;9.124;2023-05-10T04:07:39;2.70;;;0.65;;
31734;SDS011;18313;48.518;9.124;2023-05-10T04:10:06;1.40;;;0.68;;
31734;SDS011;18313;48.518;9.124;2023-05-10T04:12:33;2.08;;;1.25;;
31734;SDS011;18313;48.518;9.124;2023-05-10T04:15:01;2.08;;;0.57;;
31734;SDS011;18313;48.518;9.124;2023-05-10T04:17:28;0.90;;;0.55;;
31734;SDS011;18313;48.518;9.124;2023-05-10T04:19:55;2.30;;;0.70;;
31734;SDS011;18313;48.518;9.124;2023-05-10T04:22:22;0.55;;;0.50;;
31734;SDS011;18313;48.518;9.124;2023-05-10T04:24:50;1.25;;;0.65;;
31734;SDS011;18313;48.518;9.124;2023-05-10T04:27:17;3.22;;;0.70;;
31734;SDS011;18313;48.518;9.124;2023-05-10T04:29:44;2.42;;;0.57;;
31734;SDS011;18313;48.518;9.124;2023-05-10T04:32:11;1.08;;;0.60;;
31734;SDS011;18313;48.518;9.124;2023-05-10T04:34:38;3.25;;;0.50;;
31734;SDS011;18313;48.518;9.124;2023-05-10T04:37:06;1.17;;;0.50;;
31734;SDS011;18313;48.518;9.124;2023-05-10T04:39:34;1.88;;;0.52;;
31734;SDS011;18313;48.518;9.124;2023-05-10T04:42:02;1.42;;;0.60;;
31734;SDS011;18313;48.518;9.124;2023-05-10T04:44:29;3.08;;;0.63;;
31734;SDS011;18313;48.518;9.124;2023-05-10T04:46:57;1.10;;;0.60;;
31734;SDS011;18313;48.518;9.124;2023-05-10T04:49:24;0.80;;;0.60;;
31734;SDS011;18313;48.518;9.124;2023-05-10T04:51:51;1.23;;;0.50;;
31734;SDS011;18313;48.518;9.124;2023-05-10T04:54:18;2.55;;;0.77;;
31734;SDS011;18313;48.518;9.124;2023-05-10T04:56:45;2.55;;;0.60;;
31734;SDS011;18313;48.518;9.124;2023-05-10T04:59:12;2.28;;;0.60;;
31734;SDS011;18313;48.518;9.124;2023-05-10T05:01:39;0.90;;;0.60;;
31734;SDS011;18313;48.518;9.124;2023-05-10T05:04:06;1.58;;;0.60;;
31734;SDS011;18313;48.518;9.124;2023-05-10T05:06:34;1.00;;;0.60;;
31734;SDS011;18313;48.518;9.124;2023-05-10T05:09:01;1.55;;;0.77;;
31734;SDS011;18313;48.518;9.124;2023-05-10T05:11:28;1.20;;;0.70;;
31734;SDS011;18313;48.518;9.124;2023-05-10T05:13:56;1.10;;;0.70;;
31734;SDS011;18313;48.518;9.124;2023-05-10T05:16:25;0.75;;;0.57;;
31734;SDS011;18313;48.518;9.124;2023-05-10T05:18:52;0.73;;;0.68;;
31734;SDS011;18313;48.518;9.124;2023-05-10T05:21:19;5.80;;;0.80;;
31734;SDS011;18313;48.518;9.124;2023-05-10T05:23:47;1.73;;;0.80;;
31734;SDS011;18313;48.518;9.124;2023-05-10T05:26:14;1.00;;;0.68;;
31734;SDS011;18313;48.518;9.124;2023-05-10T05:28:43;1.98;;;0.93;;
31734;SDS011;18313;48.518;9.124;2023-05-10T05:31:10;1.17;;;0.80;;
31734;SDS011;18313;48.518;9.124;2023-05-10T05:33:37;2.03;;;0.70;;
31734;SDS011;18313;48.518;9.124;2023-05-10T05:36:05;1.33;;;0.80;;
31734;SDS011;18313;48.518;9.124;2023-05-10T05:38:32;1.88;;;0.80;;
31734;SDS011;18313;48.518;9.124;2023-05-10T05:40:59;1.13;;;0.80;;
31734;SDS011;18313;48.518;9.124;2023-05-10T05:43:27;5.07;;;0.93;;
31734;SDS011;18313;48.518;9.124;2023-05-10T05:45:54;1.80;;;0.80;;
31734;SDS011;18313;48.518;9.124;2023-05-10T05:48:24;1.65;;;0.75;;
31734;SDS011;18313;48.518;9.124;2023-05-10T05:50:55;3.70;;;0.90;;
31734;SDS011;18313;48.518;9.124;2023-05-10T05:53:23;2.13;;;0.75;;
31734;SDS011;18313;48.518;9.124;2023-05-10T05:55:51;1.42;;;0.80;;
31734;SDS011;18313;48.518;9.124;2023-05-10T05:58:20;2.35;;;1.20;;
31734;SDS011;18313;48.518;9.124;2023-05-10T06:00:51;2.38;;;0.80;;
31734;SDS011;18313;48.518;9.124;2023-05-10T06:03:21;3.25;;;0.90;;
31734;SDS011;18313;48.518;9.124;2023-05-10T06:05:48;2.05;;;1.00;;
31734;SDS011;18313;48.518;9.124;2023-05-10T06:08:15;3.95;;;0.98;;
31734;SDS011;18313;48.518;9.124;2023-05-10T06:10:42;2.28;;;0.90;;
31734;SDS011;18313;48.518;9.124;2023-05-10T06:13:10;3.20;;;1.00;;
31734;SDS011;18313;48.518;9.124;2023-05-10T06:15:38;1.88;;;0.93;;
31734;SDS011;18313;48.518;9.124;2023-05-10T06:18:05;4.13;;;1.00;;
31734;SDS011;18313;48.518;9.124;2023-05-10T06:20:32;1.42;;;0.70;;
31734;SDS011;18313;48.518;9.124;2023-05-10T06:22:59;1.95;;;0.90;;
31734;SDS011;18313;48.518;9.124;2023-05-10T06:25:26;3.25;;;1.00;;
31734;SDS011;18313;48.518;9.124;2023-05-10T06:27:53;2.95;;;0.80;;
31734;SDS011;18313;48.518;9.124;2023-05-10T06:30:24;1.73;;;0.82;;
31734;SDS011;18313;48.518;9.124;2023-05-10T06:32:55;1.20;;;0.80;;
31734;SDS011;18313;48.518;9.124;2023-05-10T06:35:23;1.98;;;0.75;;
31734;SDS011;18313;48.518;9.124;2023-05-10T06:37:50;2.75;;;0.60;;
31734;SDS011;18313;48.518;9.124;2023-05-10T06:40:18;1.27;;;0.80;;
31734;SDS011;18313;48.518;9.124;2023-05-10T06:42:45;1.23;;;0.60;;
31734;SDS011;18313;48.518;9.124;2023-05-10T06:45:13;1.40;;;0.63;;
31734;SDS011;18313;48.518;9.124;2023-05-10T06:47:42;1.38;;;0.80;;
31734;SDS011;18313;48.518;9.124;2023-05-10T06:50:09;3.95;;;0.63;;
31734;SDS011;18313;48.518;9.124;2023-05-10T06:52:40;2.42;;;0.75;;
31734;SDS011;18313;48.518;9.124;2023-05-10T06:55:07;1.35;;;0.60;;
31734;SDS011;18313;48.518;9.124;2023-05-10T06:57:35;1.95;;;1.00;;
31734;SDS011;18313;48.518;9.124;2023-05-10T07:00:02;1.20;;;0.70;;
31734;SDS011;18313;48.518;9.124;2023-05-10T07:02:33;1.00;;;0.52;;
31734;SDS011;18313;48.518;9.124;2023-05-10T07:05:00;2.65;;;0.60;;
31734;SDS011;18313;48.518;9.124;2023-05-10T07:07:29;1.05;;;0.55;;
31734;SDS011;18313;48.518;9.124;2023-05-10T07:09:56;2.40;;;0.60;;
31734;SDS011;18313;48.518;9.124;2023-05-10T07:12:24;2.03;;;0.63;;
31734;SDS011;18313;48.518;9.124;2023-05-10T07:14:51;0.88;;;0.68;;
31734;SDS011;18313;48.518;9.124;2023-05-10T07:17:18;1.33;;;0.50;;
31734;SDS011;18313;48.518;9.124;2023-05-10T07:19:45;2.10;;;0.57;;
31734;SDS011;18313;48.518;9.124;2023-05-10T07:22:13;0.68;;;0.60;;
31734;SDS011;18313;48.518;9.124;2023-05-10T07:24:40;0.60;;;0.50;;
31734;SDS011;18313;48.518;9.124;2023-05-10T07:27:07;0.95;;;0.60;;
31734;SDS011;18313;48.518;9.124;2023-05-10T07:29:34;1.60;;;0.50;;
31734;SDS011;18313;48.518;9.124;2023-05-10T07:32:02;2.10;;;0.73;;
31734;SDS011;18313;48.518;9.124;2023-05-10T07:34:29;2.08;;;0.60;;
31734;SDS011;18313;48.518;9.124;2023-05-10T07:36:58;3.63;;;1.70;;
31734;SDS011;18313;48.518;9.124;2023-05-10T07:39:25;1.88;;;0.80;;
31734;SDS011;18313;48.518;9.124;2023-05-10T07:41:54;0.90;;;0.65;;
31734;SDS011;18313;48.518;9.124;2023-05-10T07:44:21;2.50;;;1.15;;
31734;SDS011;18313;48.518;9.124;2023-05-10T07:46:49;1.33;;;0.68;;
31734;SDS011;18313;48.518;9.124;2023-05-10T07:49:17;2.35;;;0.80;;
31734;SDS011;18313;48.518;9.124;2023-05-10T07:51:44;1.20;;;0.60;;
31734;SDS011;18313;48.518;9.124;2023-05-10T07:54:11;1.17;;;0.60;;
31734;SDS011;18313;48.518;9.124;2023-05-10T07:56:39;1.27;;;0.60;;
31734;SDS011;18313;48.518;9.124;2023-05-10T07:59:14;0.63;;;0.60;;
31734;SDS011;18313;48.518;9.124;2023-05-10T08:01:44;1.52;;;0.65;;
31734;SDS011;18313;48.518;9.124;2023-05-10T08:04:13;1.13;;;0.60;;
31734;SDS011;18313;48.518;9.124;2023-05-10T08:06:40;2.42;;;0.63;;
31734;SDS011;18313;48.518;9.124;2023-05-10T08:09:08;2.33;;;0.50;;
31734;SDS011;18313;48.518;9.124;2023-05-10T08:11:35;1.83;;;0.57;;
31734;SDS011;18313;48.518;9.124;2023-05-10T08:14:02;2.92;;;0.70;;
31734;SDS011;18313;48.518;9.124;2023-05-10T08:16:29;0.90;;;0.50;;
31734;SDS011;18313;48.518;9.124;2023-05-10T08:18:57;2.35;;;0.50;;
31734;SDS011;18313;48.518;9.124;2023-05-10T08:21:24;1.27;;;0.60;;
31734;SDS011;18313;48.518;9.124;2023-05-10T08:23:52;1.60;;;0.60;;
31734;SDS011;18313;48.518;9.124;2023-05-10T08:26:19;0.75;;;0.52;;
31734;SDS011;18313;48.518;9.124;2023-05-10T08:28:47;2.63;;;0.60;;
31734;SDS011;18313;48.518;9.124;2023-05-10T08:31:14;0.90;;;0.52;;
31734;SDS011;18313;48.518;9.124;2023-05-10T08:33:42;0.90;;;0.52;;
31734;SDS011;18313;48.518;9.124;2023-05-10T08:36:10;1.60;;;0.47;;
31734;SDS011;18313;48.518;9.124;2023-05-10T08:38:40;0.80;;;0.55;;
31734;SDS011;18313;48.518;9.124;2023-05-10T08:41:07;1.48;;;0.40;;
31734;SDS011;18313;48.518;9.124;2023-05-10T08:43:35;2.60;;;0.50;;
31734;SDS011;18313;48.518;9.124;2023-05-10T08:46:02;1.05;;;0.50;;
31734;SDS011;18313;48.518;9.124;2023-05-10T08:48:31;0.82;;;0.50;;
31734;SDS011;18313;48.518;9.124;2023-05-10T08:51:01;1.02;;;0.52;;
31734;SDS011;18313;48.518;9.124;2023-05-10T08:53:30;2.92;;;0.77;;
31734;SDS011;18313;48.518;9.124;2023-05-10T08:56:00;1.20;;;0.60;;
31734;SDS011;18313;48.518;9.124;2023-05-10T08:58:28;1.20;;;0.40;;
31734;SDS011;18313;48.518;9.124;2023-05-10T09:00:55;1.42;;;0.50;;
31734;SDS011;18313;48.518;9.124;2023-05-10T09:03:24;2.00;;;0.50;;
31734;SDS011;18313;48.518;9.124;2023-05-10T09:05:51;0.93;;;0.50;;
31734;SDS011;18313;48.518;9.124;2023-05-10T09:08:18;0.70;;;0.40;;
31734;SDS011;18313;48.518;9.124;2023-05-10T09:10:46;1.30;;;0.50;;
31734;SDS011;18313;48.518;9.124;2023-05-10T09:13:15;0.88;;;0.38;;
31734;SDS011;18313;48.518;9.124;2023-05-10T09:15:43;0.47;;;0.35;;
31734;SDS011;18313;48.518;9.124;2023-05-10T09:18:12;0.63;;;0.30;;
31734;SDS011;18313;48.518;9.124;2023-05-10T09:20:39;0.55;;;0.30;;
31734;SDS011;18313;48.518;9.124;2023-05-10T09:23:07;0.90;;;0.30;;
31734;SDS011;18313;48.518;9.124;2023-05-10T09:25:34;0.73;;;0.30;;
31734;SDS011;18313;48.518;9.124;2023-05-10T09:28:01;0.30;;;0.30;;
31734;SDS011;18313;48.518;9.124;2023-05-10T09:30:29;1.48;;;0.35;;
31734;SDS011;18313;48.518;9.124;2023-05-10T09:32:58;2.25;;;0.50;;
31734;SDS011;18313;48.518;9.124;2023-05-10T09:35:27;0.55;;;0.30;;
31734;SDS011;18313;48.518;9.124;2023-05-10T09:37:56;0.57;;;0.30;;
31734;SDS011;18313;48.518;9.124;2023-05-10T09:40:26;0.80;;;0.30;;
31734;SDS011;18313;48.518;9.124;2023-05-10T09:45:26;0.22;;;0.22;;
31734;SDS011;18313;48.518;9.124;2023-05-10T09:47:54;0.82;;;0.40;;
31734;SDS011;18313;48.518;9.124;2023-05-10T09:50:22;0.30;;;0.20;;
31734;SDS011;18313;48.518;9.124;2023-05-10T09:52:53;0.90;;;0.30;;
31734;SDS011;18313;48.518;9.124;2023-05-10T09:55:37;0.40;;;0.30;;
31734;SDS011;18313;48.518;9.124;2023-05-10T09:58:05;1.75;;;0.20;;
31734;SDS011;18313;48.518;9.124;2023-05-10T10:00:38;0.40;;;0.30;;
31734;SDS011;18313;48.518;9.124;2023-05-10T10:03:07;1.75;;;0.22;;
31734;SDS011;18313;48.518;9.124;2023-05-10T10:05:41;1.02;;;0.40;;
31734;SDS011;18313;48.518;9.124;2023-05-10T10:08:09;2.15;;;0.40;;
31734;SDS011;18313;48.518;9.124;2023-05-10T10:10:38;0.82;;;0.40;;
31734;SDS011;18313;48.518;9.124;2023-05-10T10:13:11;2.40;;;0.40;;
31734;SDS011;18313;48.518;9.124;2023-05-10T10:15:39;1.30;;;0.45;;
31734;SDS011;18313;48.518;9.124;2023-05-10T10:18:06;2.13;;;0.52;;
31734;SDS011;18313;48.518;9.124;2023-05-10T10:20:37;0.80;;;0.40;;
31734;SDS011;18313;48.518;9.124;2023-05-10T10:23:04;0.93;;;0.50;;
31734;SDS011;18313;48.518;9.124;2023-05-10T10:25:31;1.17;;;0.47;;
31734;SDS011;18313;48.518;9.124;2023-05-10T10:28:10;0.45;;;0.30;;
31734;SDS011;18313;48.518;9.124;2023-05-10T10:30:51;1.92;;;0.52;;
31734;SDS011;18313;48.518;9.124;2023-05-10T10:36:14;1.52;;;0.80;;
31734;SDS011;18313;48.518;9.124;2023-05-10T10:41:34;1.17;;;0.50;;
31734;SDS011;18313;48.518;9.124;2023-05-10T10:47:01;1.65;;;0.63;;
31734;SDS011;18313;48.518;9.124;2023-05-10T10:49:32;1.73;;;0.45;;
31734;SDS011;18313;48.518;9.124;2023-05-10T10:54:58;0.90;;;0.50;;
31734;SDS011;18313;48.518;9.124;2023-05-10T10:57:42;0.80;;;0.40;;
31734;SDS011;18313;48.518;9.124;2023-05-10T11:00:22;4.45;;;0.70;;
31734;SDS011;18313;48.518;9.124;2023-05-10T11:05:41;1.85;;;0.52;;
31734;SDS011;18313;48.518;9.124;2023-05-10T11:08:28;1.80;;;0.50;;
31734;SDS011;18313;48.518;9.124;2023-05-10T11:15:56;2.25;;;0.30;;
31734;SDS011;18313;48.518;9.124;2023-05-10T11:18:26;0.80;;;0.32;;
31734;SDS011;18313;48.518;9.124;2023-05-10T11:20:58;1.27;;;0.40;;
31734;SDS011;18313;48.518;9.124;2023-05-10T11:23:30;1.20;;;0.30;;
31734;SDS011;18313;48.518;9.124;2023-05-10T11:26:09;1.63;;;0.40;;
31734;SDS011;18313;48.518;9.124;2023-05-10T11:28:41;0.85;;;0.43;;
31734;SDS011;18313;48.518;9.124;2023-05-10T11:31:09;1.52;;;0.68;;
31734;SDS011;18313;48.518;9.124;2023-05-10T11:36:15;1.35;;;0.50;;
31734;SDS011;18313;48.518;9.124;2023-05-10T11:38:45;2.05;;;0.50;;
31734;SDS011;18313;48.518;9.124;2023-05-10T11:41:13;2.50;;;0.40;;
31734;SDS011;18313;48.518;9.124;2023-05-10T11:43:41;4.43;;;0.50;;
31734;SDS011;18313;48.518;9.124;2023-05-10T11:46:10;0.85;;;0.40;;
31734;SDS011;18313;48.518;9.124;2023-05-10T11:48:38;3.50;;;0.50;;
31734;SDS011;18313;48.518;9.124;2023-05-10T11:51:07;2.58;;;0.60;;
31734;SDS011;18313;48.518;9.124;2023-05-10T11:53:34;2.85;;;0.50;;
31734;SDS011;18313;48.518;9.124;2023-05-10T11:56:02;1.75;;;0.57;;
31734;SDS011;18313;48.518;9.124;2023-05-10T11:58:31;3.10;;;0.60;;
31734;SDS011;18313;48.518;9.124;2023-05-10T12:00:59;2.67;;;0.60;;
31734;SDS011;18313;48.518;9.124;2023-05-10T12:03:27;3.42;;;0.70;;
31734;SDS011;18313;48.518;9.124;2023-05-10T12:05:55;1.83;;;1.00;;
31734;SDS011;18313;48.518;9.124;2023-05-10T12:08:24;2.65;;;0.60;;
31734;SDS011;18313;48.518;9.124;2023-05-10T12:10:53;2.08;;;0.60;;
31734;SDS011;18313;48.518;9.124;2023-05-10T12:13:29;2.03;;;0.70;;
31734;SDS011;18313;48.518;9.124;2023-05-10T12:15:57;3.30;;;0.57;;
31734;SDS011;18313;48.518;9.124;2023-05-10T12:18:25;2.80;;;0.73;;
31734;SDS011;18313;48.518;9.124;2023-05-10T12:20:52;3.00;;;0.70;;
31734;SDS011;18313;48.518;9.124;2023-05-10T12:23:20;5.15;;;1.20;;
31734;SDS011;18313;48.518;9.124;2023-05-10T12:25:47;2.35;;;0.63;;
31734;SDS011;18313;48.518;9.124;2023-05-10T12:28:14;1.67;;;0.60;;
31734;SDS011;18313;48.518;9.124;2023-05-10T12:30:45;3.55;;;1.55;;
31734;SDS011;18313;48.518;9.124;2023-05-10T12:33:13;2.88;;;0.80;;
31734;SDS011;18313;48.518;9.124;2023-05-10T12:35:49;0.77;;;0.40;;
31734;SDS011;18313;48.518;9.124;2023-05-10T12:41:00;2.53;;;0.70;;
31734;SDS011;18313;48.518;9.124;2023-05-10T12:43:29;1.92;;;0.50;;
31734;SDS011;18313;48.518;9.124;2023-05-10T12:45:56;2.95;;;0.73;;
31734;SDS011;18313;48.518;9.124;2023-05-10T12:48:24;2.05;;;1.00;;
31734;SDS011;18313;48.518;9.124;2023-05-10T12:50:51;3.63;;;0.82;;
31734;SDS011;18313;48.518;9.124;2023-05-10T12:53:18;2.80;;;0.82;;
31734;SDS011;18313;48.518;9.124;2023-05-10T12:55:45;1.30;;;0.80;;
31734;SDS011;18313;48.518;9.124;2023-05-10T12:58:12;2.42;;;0.70;;
31734;SDS011;18313;48.518;9.124;2023-05-10T13:00:59;0.98;;;0.50;;
31734;SDS011;18313;48.518;9.124;2023-05-10T13:03:26;2.40;;;0.75;;
31734;SDS011;18313;48.518;9.124;2023-05-10T13:05:53;1.52;;;0.65;;
31734;SDS011;18313;48.518;9.124;2023-05-10T13:08:20;2.10;;;0.85;;
31734;SDS011;18313;48.518;9.124;2023-05-10T13:10:47;2.67;;;0.90;;
31734;SDS011;18313;48.518;9.124;2023-05-10T13:13:15;1.95;;;0.60;;
31734;SDS011;18313;48.518;9.124;2023-05-10T13:15:42;3.03;;;0.70;;
31734;SDS011;18313;48.518;9.124;2023-05-10T13:18:09;3.95;;;0.95;;
31734;SDS011;18313;48.518;9.124;2023-05-10T13:20:36;3.28;;;0.70;;
31734;SDS011;18313;48.518;9.124;2023-05-10T13:23:04;3.03;;;0.80;;
31734;SDS011;18313;48.518;9.124;2023-05-10T13:25:31;2.38;;;0.70;;
31734;SDS011;18313;48.518;9.124;2023-05-10T13:27:58;2.13;;;0.70;;
31734;SDS011;18313;48.518;9.124;2023-05-10T13:30:25;2.13;;;0.80;;
31734;SDS011;18313;48.518;9.124;2023-05-10T13:32:52;4.00;;;0.80;;
31734;SDS011;18313;48.518;9.124;2023-05-10T13:35:19;2.20;;;0.90;;
31734;SDS011;18313;48.518;9.124;2023-05-10T13:37:46;3.58;;;0.90;;
31734;SDS011;18313;48.518;9.124;2023-05-10T13:40:14;2.75;;;0.73;;
31734;SDS011;18313;48.518;9.124;2023-05-10T13:42:42;3.15;;;0.90;;
31734;SDS011;18313;48.518;9.124;2023-05-10T13:45:09;3.53;;;0.70;;
31734;SDS011;18313;48.518;9.124;2023-05-10T13:47:38;2.80;;;0.60;;
31734;SDS011;18313;48.518;9.124;2023-05-10T13:50:06;2.92;;;0.70;;
31734;SDS011;18313;48.518;9.124;2023-05-10T13:52:33;1.77;;;0.57;;
31734;SDS011;18313;48.518;9.124;2023-05-10T13:55:00;4.13;;;0.60;;
31734;SDS011;18313;48.518;9.124;2023-05-10T13:57:28;2.20;;;0.47;;
31734;SDS011;18313;48.518;9.124;2023-05-10T13:59:56;3.90;;;0.80;;
31734;SDS011;18313;48.518;9.124;2023-05-10T14:02:24;3.00;;;0.70;;
31734;SDS011;18313;48.518;9.124;2023-05-10T14:04:54;4.30;;;0.90;;
31734;SDS011;18313;48.518;9.124;2023-05-10T14:07:21;3.95;;;1.33;;
31734;SDS011;18313;48.518;9.124;2023-05-10T14:09:48;1.70;;;0.52;;
31734;SDS011;18313;48.518;9.124;2023-05-10T14:12:15;2.30;;;0.70;;
31734;SDS011;18313;48.518;9.124;2023-05-10T14:14:42;3.70;;;0.70;;
31734;SDS011;18313;48.518;9.124;2023-05-10T14:17:09;3.15;;;0.82;;
31734;SDS011;18313;48.518;9.124;2023-05-10T14:19:38;3.28;;;0.80;;
31734;SDS011;18313;48.518;9.124;2023-05-10T14:22:05;1.85;;;0.60;;
31734;SDS011;18313;48.518;9.124;2023-05-10T14:24:33;6.53;;;0.98;;
31734;SDS011;18313;48.518;9.124;2023-05-10T14:26:59;4.43;;;0.70;;
31734;SDS011;18313;48.518;9.124;2023-05-10T14:29:27;2.13;;;0.77;;
31734;SDS011;18313;48.518;9.124;2023-05-10T14:31:54;2.33;;;0.60;;
31734;SDS011;18313;48.518;9.124;2023-05-10T14:34:21;4.22;;;0.70;;
31734;SDS011;18313;48.518;9.124;2023-05-10T14:36:48;3.63;;;0.63;;
31734;SDS011;18313;48.518;9.124;2023-05-10T14:39:16;2.10;;;0.70;;
31734;SDS011;18313;48.518;9.124;2023-05-10T14:41:43;1.80;;;0.70;;
31734;SDS011;18313;48.518;9.124;2023-05-10T14:44:11;1.80;;;0.70;;
31734;SDS011;18313;48.518;9.124;2023-05-10T14:46:38;4.15;;;0.70;;
31734;SDS011;18313;48.518;9.124;2023-05-10T14:49:05;1.55;;;0.77;;
31734;SDS011;18313;48.518;9.124;2023-05-10T14:51:32;1.00;;;0.52;;
31734;SDS011;18313;48.518;9.124;2023-05-10T14:54:00;2.28;;;0.63;;
31734;SDS011;18313;48.518;9.124;2023-05-10T14:56:27;4.22;;;0.98;;
31734;SDS011;18313;48.518;9.124;2023-05-10T14:58:54;7.97;;;0.80;;
31734;SDS011;18313;48.518;9.124;2023-05-10T15:01:22;2.40;;;0.68;;
31734;SDS011;18313;48.518;9.124;2023-05-10T15:03:50;1.50;;;0.70;;
31734;SDS011;18313;48.518;9.124;2023-05-10T15:06:20;2.08;;;0.60;;
31734;SDS011;18313;48.518;9.124;2023-05-10T15:08:51;5.57;;;0.70;;
31734;SDS011;18313;48.518;9.124;2023-05-10T15:11:18;3.25;;;0.70;;
31734;SDS011;18313;48.518;9.124;2023-05-10T15:13:45;2.72;;;0.60;;
31734;SDS011;18313;48.518;9.124;2023-05-10T15:16:12;1.88;;;0.68;;
31734;SDS011;18313;48.518;9.124;2023-05-10T15:18:39;3.13;;;0.70;;
31734;SDS011;18313;48.518;9.124;2023-05-10T15:21:06;3.05;;;0.80;;
31734;SDS011;18313;48.518;9.124;2023-05-10T15:23:33;1.42;;;0.60;;
31734;SDS011;18313;48.518;9.124;2023-05-10T15:26:00;3.50;;;0.80;;
31734;SDS011;18313;48.518;9.124;2023-05-10T15:28:27;3.55;;;0.63;;
31734;SDS011;18313;48.518;9.124;2023-05-10T15:30:55;0.93;;;0.50;;
31734;SDS011;18313;48.518;9.124;2023-05-10T15:33:22;1.70;;;0.60;;
31734;SDS011;18313;48.518;9.124;2023-05-10T15:35:49;5.90;;;1.10;;
31734;SDS011;18313;48.518;9.124;2023-05-10T15:38:16;3.42;;;0.70;;
31734;SDS011;18313;48.518;9.124;2023-05-10T15:40:44;1.90;;;0.70;;